Vero Beach Municipal Airport
KVRB : now visible

Airfield :











YOU CAN JOIN US ON...

 
LOGIN :

Register | Disclaimer

   EN    FR    IT 

 









Legend :    VFR   Marginal VFR   IFR   Intensive IFR   Very Intensive IFR
Visi :
Ceiling :
>= 8 km
>= 3000ft
5 to 8 km
1000 to 3000 ft
1500m to 5 km
500 to 1000 ft
800 to 1500m
200 to 500 ft
< 800m
< 200 ft
Symbols :   Thunderstorms  Fog  Heavy snow  Heavy precipitations  Wind > 20 kt






- Airport Elevation : 24 ft
- IATA code : VRB


KVRB - Vero Beach Municipal

CURRENT METAR :
  • 250953Z AUTO 04003KT 10SM FEW027 24/24 A3006 RMK AO2 SLP179 T02440239

EXPIRED METARs :
  • 250853Z AUTO 05004KT 10SM CLR 23/23 A3005 RMK AO2 SLP174 60005 T02330233 56015
  • 250753Z AUTO 06005KT 10SM FEW090 23/22 A3006 RMK AO2 RAB09E32 SLP176 P0005 T02280222
  • 250711Z AUTO 13009KT 5SM +RA BR FEW021 SCT038 BKN060 25/23 A3007 RMK AO2 RAB09 P0000 T02500228

TAF KVRB
Valid from the 25 at 06:00 until the 26 at 06:00 UTC


250523Z 2506/2606 VRB03KT P6SM FEW030 SCT120 BKN250
TEMPO 2508/2511 5SM -SHRA SCT030 BKN060
FM251100 07005KT P6SM VCSH SCT030 BKN120 BKN250
TEMPO 2512/2515 -TSRA BKN035CB BKN070
FM251700 08008KT P6SM VCTS SCT035CB BKN060 BKN120
FM252100 09007KT P6SM VCSH SCT035 SCT070
KZMA FIR / North America



MET'MAP, your aeronautical weather chart ! - Copyright ORBIFLY December 2007 - Disclaimer

ORBIFLY MET'MAP TEAM :

Programming & Development : Alexandra Zaïnal
Concept & original design : Baudouin d'Aumeries
Assistance for programming : Marc-Olivier Méhu
Technical & hardware support : Manuel Goepfert

Contact : metmap@orbifly.com




SOURCES & CREDITS :

   NOAA       Earth
Advisory